x

Keaton Beach, Fl (ktnf1) Weather Station

8:00pm - Tue 21st Feb 2017 All times are EST. -5 hours from GMT.

  • Wind
    9mph, 10mph gusts
  • Air Temp 68°f
  • Sea Pressure 1013.4mb
  • Keaton Beach, Fl
  • Keaton Beach, Fl

More Historic Weather Station data

Upgrade to MSW Pro to gain access to the past 30 days of data for over 8000 Wavebouys and Weather Stations around the globe.

Join Pro

Comparision Forecast

View Surf forecast
   
Tue 02/21 8:00pm 9 10 mph 1013.4mb 68f
7:00pm 9 11 mph 1013.8mb 69f
6:00pm 10 13 mph 1013.9mb 69f
5:00pm 13 15 mph 1014.1mb 70f
4:00pm 14 18 mph 1014.7mb 71f
3:00pm 16 18 mph 1015mb 71f
2:00pm 18 23 mph 1015.3mb 72f
1:00pm 13 15 mph 1016.6mb 71f
12:00pm 13 16 mph 1017.2mb 71f
11:00am 10 14 mph 1018.2mb 70f
10:00am 10 13 mph 1018.4mb 67f
9:00am 9 11 mph 1018.3mb 63f
8:00am 8 10 mph 1018.6mb 61f
7:00am 11 13 mph 1018.3mb 61f
6:00am 11 14 mph 1018.3mb 61f
5:00am 11 13 mph 1018.3mb 61f
4:00am 9 11 mph 1018.3mb 61f
3:00am 9 10 mph 1018.2mb 61f
2:00am 8 9 mph 1018.4mb 63f
1:00am 10 11 mph 1018.4mb 63f
12:00am 11 13 mph 1019mb 62f
Mon 02/20 11:00pm 3 5 mph 1019.2mb 61f
10:00pm 1 2 mph 1019.2mb 62f
9:00pm  -  1 mph 1019.2mb 66f
8:00pm 1 3 mph 1019.1mb 67f
7:00pm 6
mph
1019.2mb 68f
6:00pm 8 9 mph 1019.4mb 69f
5:00pm 6
mph
1018.9mb 69f
4:00pm 9 11 mph 1018.9mb 69f
3:00pm 9 11 mph 1019mb 68f
2:00pm 11 13 mph 1019.2mb 68f
1:00pm 9 11 mph 1019.5mb 70f
12:00pm 6
mph
1020.4mb 71f
11:00am 6 7 mph 1021.3mb 73f
10:00am 5 7 mph 1021.2mb 68f
9:00am 8 9 mph 1020.7mb 63f
8:00am 5 6 mph 1020.4mb 58f
7:00am 5 6 mph 1019.7mb 57f
6:00am 6 7 mph 1019.2mb 58f
5:00am 3 6 mph 1018.4mb 58f
4:00am 2 3 mph 1018.5mb 58f
3:00am 2 3 mph 1018.8mb 59f
2:00am 2 3 mph 1019.4mb 61f
1:00am 2 3 mph 1019.5mb 63f
12:00am 2 5 mph 1019.5mb 65f
Sun 02/19 11:00pm 6 8 mph 1019.2mb 65f
10:00pm 10 11 mph 1019.4mb 65f
9:00pm 11 13 mph 1018.9mb 65f
8:00pm 7 8 mph 1018.1mb 66f
7:00pm 2 3 mph 1017.8mb 66f
6:00pm 9
mph
1017.4mb 66f
5:00pm 10 11 mph 1017.2mb 67f
4:00pm 7 8 mph 1016.7mb 67f
3:00pm 8 9 mph 1017.1mb 67f
2:00pm 7 8 mph 1017.2mb 67f
1:00pm 8 9 mph 1018.2mb 65f
12:00pm 8
mph
1018.8mb 66f
11:00am 3 8 mph 1019.2mb 66f
10:00am 8 10 mph 1018.8mb 63f
9:00am 6 7 mph 1018.4mb 61f
8:00am 2 3 mph 1017.7mb 61f
7:00am 2 3 mph 1016.9mb 62f
6:00am 5 8 mph 1016.4mb 63f
5:00am 2 5 mph 1015.4mb 64f
4:00am 3
mph
1014.8mb 64f
3:00am 2
mph
1014.8mb 64f
2:00am 7
mph
1014.9mb 64f
1:00am 7 9 mph 1015.2mb 65f
12:00am 3
mph
1015.5mb 64f
Sat 02/18 11:00pm  -  1 mph 1015.6mb 62f
10:00pm 5
mph
1015.5mb 63f
9:00pm 2 3 mph 1015.8mb 64f
8:00pm 8 9 mph 1015mb 64f
7:00pm 9 11 mph 1014.7mb 64f
6:00pm 14 15 mph 1014.2mb 64f
5:00pm 17 20 mph 1014.3mb 63f
4:00pm 9 11 mph 1013.6mb 62f
3:00pm 10 11 mph 1013mb 62f
2:00pm 11 14 mph 1013mb 61f
1:00pm 14 15 mph 1014.5mb 55f
12:00pm 7 8 mph 1017.9mb 55f
11:00am 3 6 mph 1018.6mb 56f
10:00am 10 13 mph 1019mb 59f
9:00am  -  2 mph 1016.2mb 55f
8:00am 6
mph
1015.1mb 54f
7:00am 11 14 mph 1014.6mb 53f
6:00am 6 7 mph 1016.2mb 53f
5:00am 3 5 mph 1016.1mb 53f
4:00am 5 6 mph 1015.7mb 53f
3:00am 3
mph
1015.8mb 55f